Time;durP1;ratioP1;P1;durP2;ratioP2;P2;SDS_P1;SDS_P2;PMS_P1;PMS_P2;Temp;Humidity;BMP_temperature;BMP_pressure;BME280_temperature;BME280_humidity;BME280_pressure;Samples;Min_cycle;Max_cycle;Signal;HPM_P1;HPM_P2
2023/10/24 00:00:15;;;;;;;0.40;0.40;;;9.40;99.90;;;;;;5110075;28;20052;-82
2023/10/24 00:02:41;;;;;;;1.02;1.02;;;9.40;99.90;;;;;;5102576;28;20766;-81
2023/10/24 00:05:07;;;;;;;0.65;0.65;;;9.40;99.90;;;;;;5106905;28;20043;-84
2023/10/24 00:07:33;;;;;;;0.45;0.45;;;9.40;99.90;;;;;;5113515;27;20116;-82
2023/10/24 00:09:59;;;;;;;0.55;0.55;;;9.40;99.90;;;;;;5100041;28;20047;-83
2023/10/24 00:12:25;;;;;;;0.35;0.35;;;9.40;99.90;;;;;;5116106;27;20058;-82
2023/10/24 00:14:51;;;;;;;0.50;0.50;;;9.40;99.90;;;;;;5118329;27;20490;-83
2023/10/24 00:17:16;;;;;;;0.40;0.40;;;9.40;99.90;;;;;;5079790;28;20039;-82
2023/10/24 00:19:42;;;;;;;0.55;0.55;;;9.40;99.90;;;;;;5090209;28;20169;-82
2023/10/24 00:22:08;;;;;;;0.38;0.38;;;9.40;99.90;;;;;;5095969;28;20044;-81
2023/10/24 00:24:34;;;;;;;1.02;0.98;;;9.40;99.90;;;;;;5106961;28;20546;-83
2023/10/24 00:26:59;;;;;;;0.77;0.77;;;9.30;99.90;;;;;;5111895;27;20150;-82
2023/10/24 00:29:28;;;;;;;0.40;0.40;;;9.40;99.90;;;;;;5112326;28;20047;-81
2023/10/24 00:31:54;;;;;;;0.55;0.55;;;9.40;99.90;;;;;;5115798;28;20027;-81
2023/10/24 00:34:20;;;;;;;0.47;0.47;;;9.40;99.90;;;;;;5133692;27;20079;-81
2023/10/24 00:36:46;;;;;;;0.52;0.52;;;9.40;99.90;;;;;;5133963;27;20051;-80
2023/10/24 00:39:12;;;;;;;;;;;9.40;99.90;;;;;;5098757;28;20490;-82
2023/10/24 00:41:38;;;;;;;0.60;0.60;;;9.40;99.90;;;;;;5098955;28;20312;-82
2023/10/24 00:44:06;;;;;;;0.30;0.30;;;9.40;99.90;;;;;;5081862;28;20046;-82
2023/10/24 00:46:33;;;;;;;0.55;0.55;;;9.40;99.90;;;;;;5098967;28;20083;-81
2023/10/24 00:48:59;;;;;;;0.47;0.47;;;9.40;99.90;;;;;;5098690;28;20075;-82
2023/10/24 00:51:25;;;;;;;0.45;0.45;;;9.40;99.90;;;;;;5098497;28;20094;-82
2023/10/24 00:53:53;;;;;;;0.50;0.50;;;9.40;99.90;;;;;;5098268;28;20155;-83
2023/10/24 00:56:20;;;;;;;0.32;0.32;;;9.40;99.90;;;;;;5115441;28;20075;-81
2023/10/24 00:58:48;;;;;;;0.73;0.73;;;9.40;99.90;;;;;;5133189;27;20047;-82
2023/10/24 01:01:14;;;;;;;0.38;0.38;;;9.40;99.90;;;;;;5098711;28;20043;-81
2023/10/24 01:03:43;;;;;;;0.95;0.95;;;9.40;99.90;;;;;;5080781;28;20087;-82
2023/10/24 01:06:12;;;;;;;0.50;0.50;;;9.50;99.90;;;;;;5081718;28;20375;-82
2023/10/24 01:08:38;;;;;;;0.40;0.40;;;9.50;99.90;;;;;;5097993;28;20454;-83
2023/10/24 01:11:05;;;;;;;0.45;0.45;;;9.50;99.90;;;;;;5081736;28;20052;-82
2023/10/24 01:13:32;;;;;;;1.13;0.95;;;9.50;99.90;;;;;;5097636;28;20043;-82
2023/10/24 01:15:57;;;;;;;0.40;0.40;;;9.50;99.90;;;;;;5081066;28;20547;-82
2023/10/24 01:18:23;;;;;;;0.35;0.35;;;9.50;99.90;;;;;;5098206;28;20043;-82
2023/10/24 01:20:49;;;;;;;0.88;0.52;;;9.40;99.90;;;;;;5116277;28;20122;-82
2023/10/24 01:23:14;;;;;;;0.77;0.77;;;9.40;99.90;;;;;;5064499;28;20046;-82
2023/10/24 01:25:41;;;;;;;1.05;1.05;;;9.40;99.90;;;;;;5115656;28;20050;-81
2023/10/24 01:28:08;;;;;;;0.30;0.30;;;9.40;99.90;;;;;;5097885;28;20147;-82
2023/10/24 01:30:35;;;;;;;0.22;0.22;;;9.40;99.90;;;;;;5103822;28;20032;-83
2023/10/24 01:33:02;;;;;;;0.93;0.60;;;9.40;99.90;;;;;;5121077;28;20027;-84
2023/10/24 01:35:27;;;;;;;0.52;0.52;;;9.50;99.90;;;;;;5121372;28;20059;-84
2023/10/24 01:37:53;;;;;;;0.50;0.50;;;9.50;99.90;;;;;;5102676;28;20035;-82
2023/10/24 01:40:19;;;;;;;0.60;0.60;;;9.50;99.90;;;;;;5099232;28;20040;-82
2023/10/24 01:42:44;;;;;;;0.40;0.40;;;9.50;99.90;;;;;;5132998;27;20051;-82
2023/10/24 01:45:10;;;;;;;0.55;0.55;;;9.50;99.90;;;;;;5132411;27;20344;-82
2023/10/24 01:47:36;;;;;;;0.47;0.47;;;9.50;99.90;;;;;;5097814;28;20126;-82
2023/10/24 01:50:03;;;;;;;0.63;0.63;;;9.50;99.90;;;;;;5080055;28;20111;-83
2023/10/24 01:52:31;;;;;;;0.70;0.52;;;9.50;99.90;;;;;;5096983;28;20455;-82
2023/10/24 01:54:56;;;;;;;1.10;1.10;;;9.50;99.90;;;;;;5080269;28;20060;-82
2023/10/24 01:57:22;;;;;;;0.40;0.40;;;9.50;99.90;;;;;;5080918;28;20138;-82
2023/10/24 01:59:48;;;;;;;0.40;0.40;;;8.20;99.90;;;;;;5098186;28;20107;-82
2023/10/24 02:02:14;;;;;;;0.50;0.50;;;9.50;99.90;;;;;;5115726;28;20040;-83
2023/10/24 02:04:40;;;;;;;0.45;0.45;;;9.50;99.90;;;;;;5080650;28;20040;-82
2023/10/24 02:07:05;;;;;;;0.50;0.50;;;9.50;99.90;;;;;;5130775;27;20439;-82
2023/10/24 02:09:31;;;;;;;0.52;0.52;;;9.50;99.90;;;;;;5080576;28;20047;-83
2023/10/24 02:12:00;;;;;;;0.52;0.52;;;9.50;99.90;;;;;;5080787;28;20043;-83
2023/10/24 02:14:28;;;;;;;0.30;0.30;;;9.50;99.90;;;;;;5097125;28;20047;-83
2023/10/24 02:16:53;;;;;;;0.25;0.25;;;9.60;99.90;;;;;;5114148;28;20100;-83
2023/10/24 02:19:19;;;;;;;0.22;0.22;;;9.50;99.90;;;;;;5097513;28;20052;-82
2023/10/24 02:21:45;;;;;;;0.75;0.75;;;9.60;99.90;;;;;;5114506;28;20047;-82
2023/10/24 02:24:11;;;;;;;0.50;0.50;;;9.50;99.90;;;;;;5114975;28;20087;-83
2023/10/24 02:26:37;;;;;;;0.30;0.30;;;9.60;99.90;;;;;;5113821;28;20429;-84
2023/10/24 02:29:06;;;;;;;0.80;0.80;;;9.50;99.90;;;;;;5114120;28;20066;-83
2023/10/24 02:31:31;;;;;;;0.40;0.40;;;9.50;99.90;;;;;;5097446;28;20044;-84
2023/10/24 02:33:58;;;;;;;0.60;0.60;;;9.60;99.90;;;;;;5097493;28;20134;-84
2023/10/24 02:36:24;;;;;;;0.30;0.30;;;9.70;99.90;;;;;;5114394;28;20564;-84
2023/10/24 02:38:50;;;;;;;0.40;0.40;;;9.60;99.90;;;;;;5113781;28;20142;-84
2023/10/24 02:41:16;;;;;;;0.40;0.40;;;9.60;99.90;;;;;;5114038;28;20056;-84
2023/10/24 02:43:44;;;;;;;0.40;0.40;;;9.80;99.90;;;;;;5097405;28;20055;-85
2023/10/24 02:46:09;;;;;;;0.50;0.50;;;9.50;99.90;;;;;;5097369;28;20040;-85
2023/10/24 02:48:35;;;;;;;0.40;0.40;;;9.70;99.90;;;;;;5116262;28;20051;-84
2023/10/24 02:51:01;;;;;;;0.47;0.47;;;9.70;99.90;;;;;;5118368;28;20043;-83
2023/10/24 02:53:27;;;;;;;0.40;0.40;;;9.70;99.90;;;;;;5118760;28;20047;-84
2023/10/24 02:55:53;;;;;;;0.47;0.47;;;9.60;99.90;;;;;;5135743;27;20126;-85
2023/10/24 02:58:19;;;;;;;0.43;0.43;;;9.70;99.90;;;;;;5118011;28;20137;-83
2023/10/24 03:00:45;;;;;;;0.60;0.60;;;9.70;99.90;;;;;;5083044;28;20087;-84
2023/10/24 03:03:11;;;;;;;;;;;9.90;99.90;;;;;;5118645;28;20086;-85
2023/10/24 03:05:37;;;;;;;0.30;0.30;;;9.80;99.90;;;;;;5085049;28;19919;-84
2023/10/24 03:08:04;;;;;;;0.50;0.50;;;9.80;99.90;;;;;;5118919;28;20065;-85
2023/10/24 03:10:30;;;;;;;0.40;0.40;;;9.80;99.90;;;;;;5100850;28;20046;-85
2023/10/24 03:12:56;;;;;;;0.32;0.32;;;9.80;99.90;;;;;;5118211;28;20467;-84
2023/10/24 03:15:22;;;;;;;0.55;0.55;;;9.90;99.90;;;;;;5119266;28;20071;-83
2023/10/24 03:17:48;;;;;;;0.40;0.40;;;9.80;99.90;;;;;;5121877;28;20100;-83
2023/10/24 03:20:14;;;;;;;0.40;0.40;;;9.80;99.90;;;;;;5097946;28;20020;-86
2023/10/24 03:22:40;;;;;;;0.40;0.40;;;9.90;99.90;;;;;;5141039;28;20055;-87
2023/10/24 03:25:06;;;;;;;0.40;0.40;;;10.00;99.90;;;;;;5137415;28;20055;-86
2023/10/24 03:27:32;;;;;;;0.47;0.47;;;9.90;99.90;;;;;;5084274;28;20148;-85
2023/10/24 03:29:59;;;;;;;1.05;1.05;;;9.90;99.90;;;;;;5119196;28;20477;-84
2023/10/24 03:32:26;;;;;;;0.30;0.30;;;8.80;99.90;;;;;;5100973;28;20075;-85
2023/10/24 03:34:52;;;;;;;0.60;0.60;;;10.00;99.90;;;;;;5084008;28;20440;-85
2023/10/24 03:37:20;;;;;;;0.50;0.50;;;9.90;99.90;;;;;;5083179;28;20551;-85
2023/10/24 03:39:46;;;;;;;0.63;0.63;;;10.30;99.90;;;;;;5117397;28;20054;-85
2023/10/24 03:42:14;;;;;;;0.30;0.30;;;10.00;99.90;;;;;;5117602;28;20043;-85
2023/10/24 03:44:41;;;;;;;0.55;0.55;;;10.00;99.90;;;;;;5083744;28;20047;-84
2023/10/24 03:47:07;;;;;;;0.30;0.30;;;10.00;99.90;;;;;;5082561;28;20043;-84
2023/10/24 03:49:33;;;;;;;0.85;0.85;;;10.00;99.90;;;;;;5083644;28;20096;-84
2023/10/24 03:51:59;;;;;;;0.45;0.45;;;10.00;99.90;;;;;;5116871;28;20482;-85
2023/10/24 03:54:26;;;;;;;0.30;0.30;;;10.20;99.90;;;;;;5083037;28;20119;-85
2023/10/24 03:56:51;;;;;;;0.73;0.73;;;10.20;99.90;;;;;;5117390;28;20058;-84
2023/10/24 03:59:17;;;;;;;0.40;0.40;;;10.10;99.90;;;;;;5099171;28;20043;-84
2023/10/24 04:01:43;;;;;;;0.40;0.40;;;10.10;99.90;;;;;;5116855;28;20044;-84
2023/10/24 04:04:11;;;;;;;0.77;0.77;;;10.10;99.90;;;;;;5117172;28;20478;-85
2023/10/24 04:06:37;;;;;;;0.85;0.85;;;10.20;99.90;;;;;;5117117;28;20040;-85
2023/10/24 04:09:06;;;;;;;0.50;0.50;;;10.20;99.90;;;;;;5116077;28;20050;-84
2023/10/24 04:11:35;;;;;;;0.40;0.40;;;10.20;99.90;;;;;;5115997;28;20455;-84
2023/10/24 04:14:02;;;;;;;0.40;0.40;;;10.20;99.90;;;;;;5083021;28;20079;-84
2023/10/24 04:16:29;;;;;;;0.50;0.50;;;10.30;99.90;;;;;;5118509;28;20101;-86
2023/10/24 04:18:55;;;;;;;0.30;0.30;;;10.20;99.90;;;;;;5085710;28;20126;-84
2023/10/24 04:21:20;;;;;;;0.30;0.30;;;10.30;99.90;;;;;;5083364;28;20098;-85
2023/10/24 04:23:46;;;;;;;0.65;0.65;;;10.30;99.90;;;;;;5116579;28;20185;-84
2023/10/24 04:26:15;;;;;;;0.60;0.60;;;10.30;99.90;;;;;;5117903;28;20046;-86
2023/10/24 04:28:41;;;;;;;0.38;0.38;;;10.30;99.90;;;;;;5117186;28;20055;-85
2023/10/24 04:31:08;;;;;;;0.40;0.40;;;8.70;99.90;;;;;;5117259;28;20051;-85
2023/10/24 04:33:34;;;;;;;7.68;1.65;;;10.30;99.90;;;;;;5116442;28;20606;-87
2023/10/24 04:35:59;;;;;;;0.55;0.55;;;10.30;99.90;;;;;;5115567;28;20063;-84
2023/10/24 04:38:25;;;;;;;0.60;0.60;;;10.30;99.90;;;;;;5117086;28;20138;-85
2023/10/24 04:40:52;;;;;;;0.45;0.45;;;8.90;99.90;;;;;;5116736;28;20043;-85
2023/10/24 04:43:18;;;;;;;0.50;0.50;;;10.40;99.90;;;;;;5116317;28;20379;-85
2023/10/24 04:45:44;;;;;;;1.30;1.20;;;11.40;99.90;;;;;;5116804;28;20043;-84
2023/10/24 04:48:10;;;;;;;0.40;0.40;;;10.60;99.90;;;;;;5116383;28;20047;-85
2023/10/24 04:50:38;;;;;;;;;;;8.90;99.90;;;;;;5082615;28;20047;-86
2023/10/24 04:53:04;;;;;;;0.50;0.50;;;10.40;99.90;;;;;;5081924;28;19920;-85
2023/10/24 04:55:30;;;;;;;0.30;0.30;;;10.40;99.90;;;;;;5081750;28;20051;-86
2023/10/24 04:57:56;;;;;;;3.28;0.68;;;10.50;99.90;;;;;;5115223;28;20454;-85
2023/10/24 05:00:22;;;;;;;0.93;0.93;;;10.60;99.90;;;;;;5115833;28;20468;-84
2023/10/24 05:02:48;;;;;;;0.40;0.40;;;10.40;99.90;;;;;;5082273;28;20040;-85
2023/10/24 05:05:13;;;;;;;0.52;0.52;;;10.70;99.90;;;;;;5082171;28;20105;-86
2023/10/24 05:07:39;;;;;;;0.73;0.63;;;10.50;99.90;;;;;;5115954;28;20116;-85
2023/10/24 05:10:06;;;;;;;0.30;0.30;;;10.90;99.90;;;;;;5134800;28;20047;-87
2023/10/24 05:12:32;;;;;;;0.52;0.52;;;10.50;99.90;;;;;;5102245;28;20034;-86
2023/10/24 05:14:57;;;;;;;1.27;1.23;;;11.30;99.90;;;;;;5125057;28;20043;-86
2023/10/24 05:17:23;;;;;;;1.10;1.00;;;10.60;99.90;;;;;;5117321;28;20431;-87
2023/10/24 05:19:49;;;;;;;1.15;1.08;;;10.60;99.90;;;;;;5081388;28;20051;-85
2023/10/24 05:22:14;;;;;;;0.43;0.43;;;10.70;99.90;;;;;;5116125;28;20047;-85
2023/10/24 05:24:40;;;;;;;0.35;0.35;;;10.50;99.90;;;;;;5115390;28;20051;-86
2023/10/24 05:27:06;;;;;;;1.00;0.60;;;10.60;99.90;;;;;;5116402;28;20093;-86
2023/10/24 05:29:33;;;;;;;;;;;10.70;99.90;;;;;;5082191;28;20047;-84
2023/10/24 05:31:58;;;;;;;0.60;0.60;;;10.60;99.90;;;;;;5081271;28;19926;-85
2023/10/24 05:34:28;;;;;;;0.50;0.50;;;10.60;99.90;;;;;;5115952;28;20470;-85
2023/10/24 05:36:55;;;;;;;0.40;0.40;;;10.50;99.90;;;;;;5115666;28;20055;-85
2023/10/24 05:39:20;;;;;;;0.30;0.30;;;11.90;99.90;;;;;;5081349;28;20089;-85
2023/10/24 05:41:47;;;;;;;0.50;0.50;;;10.50;99.90;;;;;;5115728;28;20067;-84
2023/10/24 05:44:14;;;;;;;0.85;0.85;;;10.60;99.90;;;;;;5097028;28;20069;-85
2023/10/24 05:46:40;;;;;;;0.30;0.30;;;10.60;99.90;;;;;;5115300;28;20434;-85
2023/10/24 05:49:06;;;;;;;;;;;10.50;99.90;;;;;;5115387;28;20044;-84
2023/10/24 05:51:33;;;;;;;0.30;0.30;;;10.50;99.90;;;;;;5080940;28;20408;-85
2023/10/24 05:53:59;;;;;;;1.45;0.50;;;10.70;99.90;;;;;;5080777;28;20043;-85
2023/10/24 05:56:25;;;;;;;0.40;0.40;;;10.50;99.90;;;;;;5115225;28;20044;-84
2023/10/24 05:58:51;;;;;;;;;;;10.40;99.90;;;;;;5081605;28;20054;-85
2023/10/24 06:01:17;;;;;;;0.40;0.40;;;10.50;99.90;;;;;;5081489;28;19920;-85
2023/10/24 06:03:45;;;;;;;0.35;0.35;;;10.50;99.90;;;;;;5114699;28;20134;-84
2023/10/24 06:06:11;;;;;;;0.40;0.40;;;10.40;99.90;;;;;;5080242;28;20054;-84
2023/10/24 06:08:38;;;;;;;0.68;0.68;;;;;;;;;;5097526;28;20474;-84
2023/10/24 06:11:03;;;;;;;0.43;0.43;;;10.40;99.90;;;;;;5081112;28;20082;-84
2023/10/24 06:13:30;;;;;;;0.50;0.50;;;10.50;99.90;;;;;;5081325;28;20394;-85
2023/10/24 06:16:06;;;;;;;0.65;0.45;;;10.40;99.90;;;;;;5115522;28;20044;-84
2023/10/24 06:18:32;;;;;;;0.35;0.35;;;10.60;99.90;;;;;;5080989;28;20444;-84
2023/10/24 06:21:02;;;;;;;0.38;0.38;;;10.40;99.90;;;;;;5114900;28;20050;-84
2023/10/24 06:23:28;;;;;;;0.40;0.40;;;10.70;99.90;;;;;;5081638;28;20369;-85
2023/10/24 06:25:56;;;;;;;0.40;0.40;;;10.50;99.90;;;;;;5117740;28;20050;-85
2023/10/24 06:28:22;;;;;;;1.05;0.40;;;11.70;99.90;;;;;;5118303;28;20024;-85
2023/10/24 06:30:49;;;;;;;0.65;0.65;;;10.50;99.90;;;;;;5136189;27;20449;-85
2023/10/24 06:33:15;;;;;;;0.60;0.60;;;10.60;99.90;;;;;;5084632;28;20504;-85
2023/10/24 06:35:43;;;;;;;0.30;0.30;;;10.70;99.90;;;;;;5118286;28;20074;-85
2023/10/24 06:38:08;;;;;;;1.38;1.27;;;10.50;99.90;;;;;;5117582;27;20059;-85
2023/10/24 06:40:34;;;;;;;0.22;0.22;;;10.70;99.90;;;;;;5117523;28;20418;-85
2023/10/24 06:43:05;;;;;;;0.45;0.45;;;10.60;99.90;;;;;;5117434;28;20047;-84
2023/10/24 06:45:31;;;;;;;0.30;0.30;;;10.70;99.90;;;;;;5118455;28;20075;-85
2023/10/24 06:47:57;;;;;;;0.32;0.32;;;10.60;99.90;;;;;;5083250;28;20083;-85
2023/10/24 06:50:23;;;;;;;0.40;0.40;;;11.10;99.90;;;;;;5083300;28;20047;-84
2023/10/24 06:52:49;;;;;;;1.15;1.15;;;10.70;99.90;;;;;;5117356;28;20056;-84
2023/10/24 06:55:14;;;;;;;0.50;0.50;;;10.80;99.90;;;;;;5067810;28;20056;-84
2023/10/24 06:57:40;;;;;;;1.13;1.10;;;10.70;99.90;;;;;;5044456;28;20053;-85
2023/10/24 07:00:07;;;;;;;0.70;0.70;;;10.70;99.90;;;;;;5079409;28;20053;-86
2023/10/24 07:02:34;;;;;;;0.73;0.73;;;10.80;99.90;;;;;;5074665;28;20424;-85
2023/10/24 07:05:00;;;;;;;0.52;0.52;;;10.70;99.90;;;;;;5065433;28;20052;-85
2023/10/24 07:07:26;;;;;;;;;;;10.50;99.90;;;;;;5060783;28;20058;-85
2023/10/24 07:09:52;;;;;;;0.50;0.50;;;11.20;99.90;;;;;;5092537;28;19969;-85
2023/10/24 07:12:17;;;;;;;0.60;0.60;;;10.90;99.90;;;;;;5060240;28;20053;-85
2023/10/24 07:14:45;;;;;;;1.25;1.15;;;10.80;99.90;;;;;;5059989;28;20434;-85
2023/10/24 07:17:14;;;;;;;0.50;0.50;;;11.40;99.90;;;;;;5059661;28;20044;-85
2023/10/24 07:19:40;;;;;;;0.40;0.40;;;13.10;99.90;;;;;;5059479;28;20044;-85
2023/10/24 07:22:08;;;;;;;0.57;0.50;;;10.80;99.90;;;;;;5042305;28;20143;-85
2023/10/24 07:24:33;;;;;;;3.20;1.13;;;11.00;99.90;;;;;;5043009;28;20177;-85
2023/10/24 07:26:59;;;;;;;0.68;0.68;;;10.80;99.90;;;;;;5059621;28;20086;-85
2023/10/24 07:29:27;;;;;;;0.50;0.50;;;10.90;99.90;;;;;;5043553;28;20079;-86
2023/10/24 07:31:53;;;;;;;0.40;0.40;;;10.90;99.90;;;;;;5059898;28;20045;-85
2023/10/24 07:34:19;;;;;;;0.45;0.45;;;10.90;99.90;;;;;;5059847;28;20439;-85
2023/10/24 07:36:45;;;;;;;0.52;0.52;;;11.00;99.90;;;;;;5059633;28;20049;-85
2023/10/24 07:39:13;;;;;;;1.70;1.60;;;11.00;99.90;;;;;;5059368;28;20104;-85
2023/10/24 07:41:40;;;;;;;2.30;0.70;;;10.90;99.90;;;;;;5059395;28;20147;-85
2023/10/24 07:44:06;;;;;;;;;;;10.90;99.90;;;;;;5060043;28;20048;-86
2023/10/24 07:46:32;;;;;;;0.93;0.82;;;10.90;99.90;;;;;;5092012;28;20405;-85
2023/10/24 07:48:58;;;;;;;0.47;0.47;;;11.00;99.90;;;;;;5059826;28;20049;-86
2023/10/24 07:51:31;;;;;;;;;;;11.60;99.90;;;;;;5059363;28;20052;-85
2023/10/24 07:53:57;;;;;;;0.63;0.63;;;11.40;99.90;;;;;;5094927;28;19929;-85
2023/10/24 07:56:24;;;;;;;0.63;0.50;;;10.90;99.90;;;;;;5099795;28;20067;-86
2023/10/24 07:58:50;;;;;;;0.90;0.68;;;11.10;99.90;;;;;;5081970;28;20466;-86
2023/10/24 08:01:18;;;;;;;0.45;0.45;;;11.00;99.90;;;;;;5099713;28;20046;-86
2023/10/24 08:03:44;;;;;;;0.63;0.60;;;11.00;99.90;;;;;;5116786;28;20146;-85
2023/10/24 08:06:11;;;;;;;0.90;0.90;;;11.20;99.90;;;;;;5082869;28;20047;-85
2023/10/24 08:08:37;;;;;;;2.28;0.77;;;11.00;99.90;;;;;;5081775;28;20505;-84
2023/10/24 08:11:02;;;;;;;1.65;0.75;;;11.10;99.90;;;;;;5081733;28;20119;-84
2023/10/24 08:13:29;;;;;;;1.25;0.47;;;11.50;99.90;;;;;;5099498;28;20047;-84
2023/10/24 08:15:58;;;;;;;0.93;0.63;;;;;;;;;;5116576;28;20051;-84
2023/10/24 08:18:24;;;;;;;0.47;0.47;;;11.00;99.90;;;;;;5082728;28;20054;-84
2023/10/24 08:20:51;;;;;;;0.35;0.35;;;11.10;99.90;;;;;;5081871;28;20490;-84
2023/10/24 08:23:16;;;;;;;0.85;0.85;;;12.20;99.90;;;;;;5098962;28;20050;-84
2023/10/24 08:25:43;;;;;;;0.30;0.30;;;;;;;;;;5082070;28;20127;-83
2023/10/24 08:28:08;;;;;;;;;;;;;;;;;;5081948;28;20035;-83
2023/10/24 08:30:35;;;;;;;0.70;0.70;;;;;;;;;;5116253;28;19920;-84
2023/10/24 08:33:01;;;;;;;0.60;0.60;;;;;;;;;;5081798;28;20466;-83
2023/10/24 08:35:27;;;;;;;0.95;0.95;;;;;;;;;;5080513;28;20047;-84
2023/10/24 08:37:53;;;;;;;0.60;0.60;;;11.30;99.90;;;;;;5099487;28;20051;-83
2023/10/24 08:40:20;;;;;;;0.65;0.65;;;11.20;99.90;;;;;;5101258;28;20304;-84
2023/10/24 08:42:46;;;;;;;0.65;0.57;;;11.20;99.90;;;;;;5118913;28;20097;-84
2023/10/24 08:45:16;;;;;;;0.60;0.60;;;11.10;99.90;;;;;;5092516;28;20035;-85
2023/10/24 08:47:47;;;;;;;0.68;0.68;;;11.20;99.90;;;;;;5102414;28;20042;-83
2023/10/24 08:50:13;;;;;;;0.32;0.32;;;11.30;99.90;;;;;;5100381;28;20044;-84
2023/10/24 08:52:39;;;;;;;;;;;11.00;99.90;;;;;;5116345;28;20048;-83
2023/10/24 08:55:08;;;;;;;0.30;0.30;;;11.20;99.90;;;;;;5131942;27;19919;-83
2023/10/24 08:57:38;;;;;;;0.80;0.80;;;;;;;;;;5098112;28;20047;-84
2023/10/24 09:00:07;;;;;;;0.52;0.43;;;11.10;99.90;;;;;;5081550;28;20094;-83
2023/10/24 09:02:34;;;;;;;1.08;1.08;;;11.10;99.90;;;;;;5114957;28;20046;-82
2023/10/24 09:05:00;;;;;;;0.40;0.40;;;11.70;99.90;;;;;;5080595;28;20059;-84
2023/10/24 09:07:26;;;;;;;0.85;0.50;;;;;;;;;;5114736;28;20104;-83
2023/10/24 09:09:52;;;;;;;0.50;0.50;;;11.20;99.90;;;;;;5081169;28;20051;-84
2023/10/24 09:12:18;;;;;;;0.40;0.40;;;11.10;99.90;;;;;;5080579;28;20436;-83
2023/10/24 09:14:46;;;;;;;0.40;0.40;;;11.10;99.90;;;;;;5097422;28;20051;-84
2023/10/24 09:17:16;;;;;;;0.47;0.47;;;11.20;99.90;;;;;;5115428;28;20398;-84
2023/10/24 09:19:42;;;;;;;0.30;0.30;;;11.20;99.90;;;;;;5081371;28;20072;-85
2023/10/24 09:22:09;;;;;;;0.38;0.38;;;11.20;99.90;;;;;;5097233;28;20054;-84
2023/10/24 09:24:35;;;;;;;0.40;0.40;;;11.20;99.90;;;;;;5097729;28;20051;-84
2023/10/24 09:27:04;;;;;;;0.30;0.30;;;11.20;99.90;;;;;;5096889;28;20519;-84
2023/10/24 09:29:32;;;;;;;0.20;0.20;;;11.30;99.90;;;;;;5096526;28;20489;-84
2023/10/24 09:31:58;;;;;;;1.40;1.33;;;11.40;99.90;;;;;;5097474;28;20440;-84
2023/10/24 09:34:24;;;;;;;0.50;0.50;;;11.10;99.90;;;;;;5114698;28;20470;-84
2023/10/24 09:36:54;;;;;;;0.70;0.70;;;11.20;99.90;;;;;;5097420;28;20058;-84
2023/10/24 09:39:20;;;;;;;0.40;0.40;;;11.20;99.90;;;;;;5114351;28;20370;-84
2023/10/24 09:41:47;;;;;;;;;;;12.60;99.90;;;;;;5114734;28;20167;-84
2023/10/24 09:44:14;;;;;;;1.13;1.13;;;11.30;99.90;;;;;;5097354;28;19942;-84
2023/10/24 09:46:40;;;;;;;1.15;1.05;;;11.20;99.90;;;;;;5097044;28;20130;-85
2023/10/24 09:49:07;;;;;;;;;;;11.10;99.90;;;;;;5080529;28;20081;-84
2023/10/24 09:51:38;;;;;;;0.50;0.50;;;11.10;99.90;;;;;;5080451;28;19919;-85
2023/10/24 09:54:07;;;;;;;0.98;0.63;;;11.10;99.90;;;;;;5114230;28;20047;-86
2023/10/24 09:56:33;;;;;;;0.57;0.57;;;11.10;99.90;;;;;;5096990;28;20089;-84
2023/10/24 09:59:00;;;;;;;0.98;0.55;;;11.00;99.90;;;;;;5112869;28;20039;-84
2023/10/24 10:01:29;;;;;;;0.55;0.55;;;11.00;99.90;;;;;;5080633;28;20055;-84
2023/10/24 10:04:00;;;;;;;0.43;0.43;;;11.10;99.90;;;;;;5114784;28;20047;-84
2023/10/24 10:06:30;;;;;;;0.28;0.28;;;11.10;99.90;;;;;;5115923;28;20050;-84
2023/10/24 10:09:00;;;;;;;0.60;0.60;;;11.10;99.90;;;;;;5096810;28;20565;-85
2023/10/24 10:11:30;;;;;;;0.50;0.50;;;11.10;99.90;;;;;;5079415;28;20528;-83
2023/10/24 10:14:08;;;;;;;0.60;0.60;;;11.10;99.90;;;;;;5096654;28;20044;-84
2023/10/24 10:17:10;;;;;;;1.10;1.00;;;11.10;99.90;;;;;;5080446;28;20154;-84
2023/10/24 10:19:54;;;;;;;0.80;0.70;;;11.20;99.90;;;;;;5096907;28;20056;-84
2023/10/24 10:22:58;;;;;;;0.80;0.60;;;11.20;99.90;;;;;;5096343;28;20180;-84
2023/10/24 10:25:52;;;;;;;0.88;0.88;;;11.10;99.90;;;;;;5079239;28;20051;-83
2023/10/24 10:28:46;;;;;;;2.38;2.28;;;11.20;99.90;;;;;;5097443;28;20176;-84
2023/10/24 10:31:44;;;;;;;0.70;0.70;;;11.10;99.90;;;;;;5097904;28;20040;-84
2023/10/24 10:34:11;;;;;;;0.38;0.38;;;11.10;99.90;;;;;;5101761;28;20095;-86
2023/10/24 10:36:53;;;;;;;0.40;0.40;;;10.20;99.90;;;;;;5101475;28;20055;-84
2023/10/24 10:39:18;;;;;;;0.93;0.85;;;11.30;99.90;;;;;;5086520;28;20446;-85
2023/10/24 10:41:45;;;;;;;0.80;0.80;;;11.20;99.90;;;;;;5114421;28;20051;-85
2023/10/24 10:44:29;;;;;;;0.50;0.50;;;11.10;99.90;;;;;;5112651;28;20055;-83
2023/10/24 10:46:59;;;;;;;1.58;1.48;;;11.20;99.90;;;;;;5096739;28;20142;-84
2023/10/24 10:49:26;;;;;;;0.52;0.52;;;11.20;99.90;;;;;;5113546;28;20048;-85
2023/10/24 10:51:58;;;;;;;0.57;0.52;;;11.20;99.90;;;;;;5095174;28;20050;-84
2023/10/24 10:54:59;;;;;;;0.30;0.30;;;11.30;99.90;;;;;;5129523;28;20055;-84
2023/10/24 10:57:32;;;;;;;1.42;1.35;;;11.40;99.90;;;;;;5059357;28;20051;-84
2023/10/24 11:00:12;;;;;;;0.50;0.50;;;11.50;99.90;;;;;;5096124;28;20043;-84
2023/10/24 11:03:02;;;;;;;0.57;0.57;;;11.60;99.90;;;;;;5113667;28;20043;-84
2023/10/24 11:05:37;;;;;;;0.63;0.63;;;11.70;99.90;;;;;;5095947;28;20093;-83
2023/10/24 11:08:06;;;;;;;0.85;0.85;;;11.80;99.90;;;;;;5095878;28;20412;-84
2023/10/24 11:10:57;;;;;;;1.63;1.23;;;11.90;99.90;;;;;;5082636;28;20055;-83
2023/10/24 11:13:43;;;;;;;0.95;0.95;;;12.00;99.90;;;;;;5099994;28;20043;-83
2023/10/24 11:16:13;;;;;;;0.55;0.55;;;12.00;99.90;;;;;;5100153;28;20427;-84
2023/10/24 11:18:39;;;;;;;1.05;0.75;;;12.00;99.90;;;;;;5099580;28;20494;-83
2023/10/24 11:21:08;;;;;;;0.60;0.60;;;12.10;99.90;;;;;;5099385;28;20047;-82
2023/10/24 11:23:35;;;;;;;0.70;0.70;;;12.10;99.90;;;;;;5116613;28;20148;-83
2023/10/24 11:26:02;;;;;;;0.90;0.90;;;12.10;99.90;;;;;;5082209;28;20130;-83
2023/10/24 11:28:32;;;;;;;0.55;0.55;;;12.10;99.90;;;;;;5133444;27;20419;-83
2023/10/24 11:30:57;;;;;;;;;;;12.20;99.90;;;;;;5100049;28;20047;-83
2023/10/24 11:33:24;;;;;;;0.65;0.65;;;12.10;99.90;;;;;;5082753;28;19920;-83
2023/10/24 11:35:50;;;;;;;2.15;1.52;;;10.70;99.90;;;;;;5082240;28;20139;-83
2023/10/24 11:38:18;;;;;;;0.40;0.40;;;12.10;99.90;;;;;;5081277;28;20114;-83
2023/10/24 11:40:46;;;;;;;0.40;0.40;;;12.10;99.90;;;;;;5116003;28;20382;-83
2023/10/24 11:43:17;;;;;;;0.55;0.55;;;12.10;99.90;;;;;;5098986;28;20074;-84
2023/10/24 11:45:44;;;;;;;0.20;0.20;;;;;;;;;;5099189;28;20076;-84
2023/10/24 11:48:09;;;;;;;;;;;12.10;99.90;;;;;;5081559;28;20051;-83
2023/10/24 11:50:53;;;;;;;0.47;0.47;;;12.10;99.90;;;;;;5116961;28;20014;-84
2023/10/24 11:53:21;;;;;;;1.45;1.02;;;12.20;99.90;;;;;;5081918;28;20455;-83
2023/10/24 11:55:48;;;;;;;0.68;0.68;;;12.20;99.90;;;;;;5099118;28;20525;-82
2023/10/24 11:58:14;;;;;;;1.85;0.88;;;12.20;99.90;;;;;;5099373;28;20058;-83
2023/10/24 12:00:42;;;;;;;;;;;12.20;99.90;;;;;;5099054;28;20081;-83
2023/10/24 12:03:08;;;;;;;1.13;1.05;;;12.20;99.90;;;;;;5116254;28;19919;-83
2023/10/24 12:05:43;;;;;;;;;;;12.10;99.90;;;;;;5082343;28;20445;-85
2023/10/24 12:08:12;;;;;;;4.13;2.83;;;12.90;99.90;;;;;;5099094;28;19920;-83
2023/10/24 12:10:38;;;;;;;0.57;0.57;;;12.00;99.90;;;;;;5081926;28;20044;-83
2023/10/24 12:13:04;;;;;;;0.63;0.63;;;12.00;99.90;;;;;;5099166;28;20040;-83
2023/10/24 12:15:30;;;;;;;1.55;1.45;;;11.90;99.90;;;;;;5081809;28;20173;-83
2023/10/24 12:18:01;;;;;;;0.77;0.77;;;11.90;99.90;;;;;;5120224;28;20110;-83
2023/10/24 12:20:27;;;;;;;0.50;0.50;;;11.90;99.90;;;;;;5087408;28;20054;-83
2023/10/24 12:22:52;;;;;;;1.35;1.35;;;11.90;99.90;;;;;;5100584;28;20071;-83
2023/10/24 12:25:18;;;;;;;0.40;0.40;;;11.90;99.90;;;;;;5100300;28;20498;-82
2023/10/24 12:27:47;;;;;;;0.43;0.43;;;11.90;99.90;;;;;;5117389;28;20044;-83
2023/10/24 12:30:14;;;;;;;0.60;0.60;;;10.70;99.90;;;;;;5117629;28;20062;-83
2023/10/24 12:32:43;;;;;;;0.50;0.50;;;11.90;99.90;;;;;;5099424;28;20075;-83
2023/10/24 12:35:09;;;;;;;1.02;0.75;;;11.80;99.90;;;;;;5098228;28;20050;-83
2023/10/24 12:37:35;;;;;;;1.02;0.95;;;11.80;99.90;;;;;;5081485;28;20039;-83
2023/10/24 12:40:04;;;;;;;0.30;0.30;;;11.80;99.90;;;;;;5116321;28;20422;-83
2023/10/24 12:42:32;;;;;;;0.85;0.85;;;11.80;99.90;;;;;;5097335;28;20130;-83
2023/10/24 12:44:58;;;;;;;2.00;1.42;;;11.90;99.90;;;;;;5115678;28;20052;-83
2023/10/24 12:47:23;;;;;;;1.05;0.85;;;11.90;99.90;;;;;;5115431;28;20050;-84
2023/10/24 12:49:49;;;;;;;2.05;1.25;;;11.90;99.90;;;;;;5116324;28;20047;-82
2023/10/24 12:52:15;;;;;;;0.45;0.43;;;11.90;99.90;;;;;;5115432;28;20046;-82
2023/10/24 12:54:41;;;;;;;0.45;0.45;;;11.90;99.90;;;;;;5115470;28;20052;-83
2023/10/24 12:57:07;;;;;;;0.55;0.55;;;11.90;99.90;;;;;;5080740;28;20169;-83
2023/10/24 12:59:32;;;;;;;0.70;0.70;;;11.90;99.90;;;;;;5098035;28;20050;-82